Time;durP1;ratioP1;P1;durP2;ratioP2;P2;SDS_P1;SDS_P2;PMS_P1;PMS_P2;Temp;Humidity;BMP_temperature;BMP_pressure;BME280_temperature;BME280_humidity;BME280_pressure;Samples;Min_cycle;Max_cycle;Signal;HPM_P1;HPM_P2
2021/06/06 00:00:07;;;;;;;;;;;27.50;62.80;;;;;;5124230;28;19919;-35
2021/06/06 00:02:32;;;;;;;;;;;27.50;62.90;;;;;;5123950;28;19919;-35
2021/06/06 00:04:58;;;;;;;;;;;27.50;62.90;;;;;;5123800;28;19933;-35
2021/06/06 00:07:24;;;;;;;;;;;27.50;62.90;;;;;;5123909;28;19914;-35
2021/06/06 00:09:50;;;;;;;;;;;27.50;63.00;;;;;;5126725;27;19976;-36
2021/06/06 00:12:16;;;;;;;;;;;27.50;63.00;;;;;;5123912;28;19912;-35
2021/06/06 00:14:42;;;;;;;;;;;27.50;63.00;;;;;;5123576;28;19965;-35
2021/06/06 00:17:09;;;;;;;;;;;27.40;62.90;;;;;;5133665;27;19911;-35
2021/06/06 00:19:35;;;;;;;;;;;27.40;63.00;;;;;;5140943;27;19918;-35
2021/06/06 00:22:01;;;;;;;;;;;27.40;63.00;;;;;;5136996;27;19983;-35
2021/06/06 00:24:28;;;;;;;;;;;27.40;63.00;;;;;;5144129;27;19955;-35
2021/06/06 00:26:54;;;;;;;;;;;27.40;63.80;;;;;;5144323;27;19919;-35
2021/06/06 00:29:20;;;;;;;;;;;27.40;63.10;;;;;;5124297;28;19912;-35
2021/06/06 00:31:46;;;;;;;;;;;27.40;63.10;;;;;;5123456;28;19911;-35
2021/06/06 00:34:12;;;;;;;;;;;27.40;63.10;;;;;;5123471;28;19907;-35
2021/06/06 00:36:38;;;;;;;;;;;27.30;63.00;;;;;;5123896;28;19916;-35
2021/06/06 00:39:04;;;;;;;;;;;27.30;63.00;;;;;;5123662;28;19911;-35
2021/06/06 00:41:30;;;;;;;;;;;27.30;63.00;;;;;;5123574;28;19911;-35
2021/06/06 00:43:56;;;;;;;;;;;27.30;63.10;;;;;;5123018;28;19919;-35
2021/06/06 00:46:23;;;;;;;;;;;27.30;63.10;;;;;;5123447;28;19908;-35
2021/06/06 00:48:49;;;;;;;;;;;27.30;63.10;;;;;;5123605;28;19919;-35
2021/06/06 00:51:21;;;;;;;;;;;27.30;63.10;;;;;;5123543;28;19908;-34
2021/06/06 00:53:56;;;;;;;;;;;27.30;63.20;;;;;;5128923;28;19923;-35
2021/06/06 00:56:24;;;;;;;;;;;27.30;63.90;;;;;;5145415;27;19912;-35
2021/06/06 00:58:50;;;;;;;;;;;27.30;63.10;;;;;;5115173;28;19912;-35
2021/06/06 01:01:17;;;;;;;;;;;27.20;63.00;;;;;;5127748;28;19907;-34
2021/06/06 01:03:44;;;;;;;;;;;27.20;63.10;;;;;;5127629;28;19951;-35
2021/06/06 01:06:13;;;;;;;;;;;27.20;63.10;;;;;;5127411;28;19912;-35
2021/06/06 01:08:39;;;;;;;;;;;27.20;63.10;;;;;;5127460;28;19986;-35
2021/06/06 01:11:12;;;;;;;;;;;27.20;63.20;;;;;;5139762;27;19911;-35
2021/06/06 01:13:42;;;;;;;;;;;27.20;63.20;;;;;;5129368;27;19915;-35
2021/06/06 01:16:09;;;;;;;;;;;27.20;63.20;;;;;;5147702;27;19916;-35
2021/06/06 01:18:36;;;;;;;;;;;27.20;63.30;;;;;;5129498;27;19951;-35
2021/06/06 01:21:20;;;;;;;;;;;27.20;63.30;;;;;;5131873;27;19912;-35
2021/06/06 01:24:15;;;;;;;;;;;27.10;63.20;;;;;;5127104;28;19922;-35
2021/06/06 01:26:50;;;;;;;;;;;27.10;63.20;;;;;;5105040;28;19921;-35
2021/06/06 01:29:19;;;;;;;;;;;27.10;63.30;;;;;;5145535;27;19911;-35
2021/06/06 01:31:46;;;;;;;;;;;27.10;63.30;;;;;;5147825;27;19915;-35
2021/06/06 01:34:12;;;;;;;;;;;27.10;63.20;;;;;;5147702;27;19915;-35
2021/06/06 01:36:42;;;;;;;;;;;27.10;63.20;;;;;;5128780;27;19915;-35
2021/06/06 01:39:28;;;;;;;;;;;27.10;63.30;;;;;;5129061;27;19923;-35
2021/06/06 01:41:55;;;;;;;;;;;27.10;63.20;;;;;;5125912;28;19908;-35
2021/06/06 01:44:22;;;;;;;;;;;27.10;63.20;;;;;;5108508;28;19908;-35
2021/06/06 01:46:59;;;;;;;;;;;27.10;63.20;;;;;;5108019;28;20375;-35
2021/06/06 01:49:25;;;;;;;;;;;27.10;63.30;;;;;;5110701;27;20557;-35
2021/06/06 01:51:52;;;;;;;;;;;27.10;63.20;;;;;;5128872;27;19940;-34
2021/06/06 01:54:19;;;;;;;;;;;27.00;63.20;;;;;;5128492;27;19911;-35
2021/06/06 01:56:45;;;;;;;;;;;27.00;63.20;;;;;;5122401;28;19947;-35
2021/06/06 01:59:12;;;;;;;;;;;27.00;63.20;;;;;;5125543;27;19911;-35
2021/06/06 02:01:38;;;;;;;;;;;27.00;63.30;;;;;;5128487;27;19926;-34
2021/06/06 02:04:04;;;;;;;;;;;27.00;63.20;;;;;;5143665;27;19919;-35
2021/06/06 02:06:33;;;;;;;;;;;27.00;63.30;;;;;;5145775;27;19943;-34
2021/06/06 02:08:59;;;;;;;;;;;27.00;63.40;;;;;;5128385;27;20040;-35
2021/06/06 02:11:25;;;;;;;;;;;26.90;63.40;;;;;;5111539;28;19949;-35
2021/06/06 02:13:51;;;;;;;;;;;26.90;63.40;;;;;;5126087;28;19929;-34
2021/06/06 02:16:21;;;;;;;;;;;26.90;63.40;;;;;;5125810;28;19912;-34
2021/06/06 02:18:47;;;;;;;;;;;26.90;63.40;;;;;;5126118;28;19974;-36
2021/06/06 02:21:13;;;;;;;;;;;26.90;63.40;;;;;;5126058;28;20230;-35
2021/06/06 02:23:40;;;;;;;;;;;26.90;63.40;;;;;;5125759;28;20001;-35
2021/06/06 02:26:11;;;;;;;;;;;26.90;63.40;;;;;;5107492;28;19934;-35
2021/06/06 02:28:39;;;;;;;;;;;26.80;63.30;;;;;;5122777;27;19912;-35
2021/06/06 02:31:11;;;;;;;;;;;26.80;63.30;;;;;;5127802;27;19972;-35
2021/06/06 02:33:40;;;;;;;;;;;26.90;63.30;;;;;;5146543;27;19992;-35
2021/06/06 02:36:06;;;;;;;;;;;26.80;63.30;;;;;;5127644;27;20006;-35
2021/06/06 02:38:42;;;;;;;;;;;26.80;63.30;;;;;;5146402;27;19941;-35
2021/06/06 02:41:12;;;;;;;;;;;26.80;63.20;;;;;;5131813;27;19916;-35
2021/06/06 02:43:42;;;;;;;;;;;26.80;63.30;;;;;;5107040;28;19958;-35
2021/06/06 02:46:08;;;;;;;;;;;26.80;63.20;;;;;;5125248;28;19912;-35
2021/06/06 02:48:36;;;;;;;;;;;26.80;63.30;;;;;;5107066;28;19911;-35
2021/06/06 02:51:04;;;;;;;;;;;26.80;63.30;;;;;;5125485;28;19918;-35
2021/06/06 02:53:31;;;;;;;;;;;26.80;64.00;;;;;;5113302;28;19908;-35
2021/06/06 02:55:59;;;;;;;;;;;26.80;63.30;;;;;;5121464;27;19977;-35
2021/06/06 02:58:27;;;;;;;;;;;26.70;63.30;;;;;;5134637;27;19934;-35
2021/06/06 03:00:55;;;;;;;;;;;26.70;63.30;;;;;;5107033;28;19916;-35
2021/06/06 03:03:31;;;;;;;;;;;26.70;63.50;;;;;;5125218;28;19916;-35
2021/06/06 03:05:57;;;;;;;;;;;26.70;63.40;;;;;;5106865;28;19969;-35
2021/06/06 03:08:23;;;;;;;;;;;26.70;63.50;;;;;;5106626;28;20590;-35
2021/06/06 03:10:48;;;;;;;;;;;26.70;63.50;;;;;;5106460;28;19911;-35
2021/06/06 03:13:24;;;;;;;;;;;26.70;64.30;;;;;;5124840;28;19908;-35
2021/06/06 03:15:51;;;;;;;;;;;26.70;63.50;;;;;;5106451;28;19912;-35
2021/06/06 03:18:17;;;;;;;;;;;26.70;63.50;;;;;;5124756;28;19918;-35
2021/06/06 03:20:45;;;;;;;;;;;26.70;63.50;;;;;;5109720;28;19912;-35
2021/06/06 03:23:11;;;;;;;;;;;26.70;63.50;;;;;;5124318;28;19932;-35
2021/06/06 03:25:45;;;;;;;;;;;26.70;63.40;;;;;;5106260;28;19969;-35
2021/06/06 03:28:12;;;;;;;;;;;26.70;63.40;;;;;;5133459;27;19912;-35
2021/06/06 03:30:41;;;;;;;;;;;26.60;63.40;;;;;;5145280;27;19913;-35
2021/06/06 03:33:10;;;;;;;;;;;26.60;63.40;;;;;;5145150;27;19915;-35
2021/06/06 03:35:36;;;;;;;;;;;26.60;63.30;;;;;;5126585;27;19907;-35
2021/06/06 03:38:03;;;;;;;;;;;26.60;63.30;;;;;;5144629;27;19911;-35
2021/06/06 03:40:29;;;;;;;;;;;26.60;63.30;;;;;;5136322;27;19918;-35
2021/06/06 03:42:55;;;;;;;;;;;26.60;63.30;;;;;;5124190;28;19920;-35
2021/06/06 03:45:21;;;;;;;;;;;26.60;63.30;;;;;;5105863;28;19929;-34
2021/06/06 03:47:47;;;;;;;;;;;26.60;63.30;;;;;;5123776;28;19980;-35
2021/06/06 03:50:14;;;;;;;;;;;26.60;63.40;;;;;;5124314;28;19919;-35
2021/06/06 03:52:40;;;;;;;;;;;26.50;63.40;;;;;;5124032;28;19912;-35
2021/06/06 03:55:06;;;;;;;;;;;26.50;63.40;;;;;;5124067;28;20409;-35
2021/06/06 03:57:33;;;;;;;;;;;26.50;63.50;;;;;;5130380;27;20493;-35
2021/06/06 03:59:59;;;;;;;;;;;26.50;63.60;;;;;;5123913;28;19977;-35
2021/06/06 04:02:25;;;;;;;;;;;26.50;63.50;;;;;;5123839;28;19924;-34
2021/06/06 04:04:51;;;;;;;;;;;26.50;63.60;;;;;;5124004;28;19996;-35
2021/06/06 04:07:17;;;;;;;;;;;26.50;63.60;;;;;;5105303;28;20192;-35
2021/06/06 04:09:43;;;;;;;;;;;26.50;63.50;;;;;;5126181;27;19916;-35
2021/06/06 04:12:09;;;;;;;;;;;26.50;63.60;;;;;;5144435;27;19914;-35
2021/06/06 04:14:35;;;;;;;;;;;26.40;63.40;;;;;;5108300;28;19911;-35
2021/06/06 04:17:01;;;;;;;;;;;26.40;63.40;;;;;;5123535;28;20003;-35
2021/06/06 04:19:26;;;;;;;;;;;26.40;63.40;;;;;;5123818;28;19979;-35
2021/06/06 04:21:52;;;;;;;;;;;26.40;63.50;;;;;;5123552;28;19977;-36
2021/06/06 04:24:18;;;;;;;;;;;26.40;63.40;;;;;;5132483;27;19926;-35
2021/06/06 04:26:44;;;;;;;;;;;26.40;63.40;;;;;;5143988;27;20388;-35
2021/06/06 04:29:10;;;;;;;;;;;26.40;63.40;;;;;;5126252;27;19918;-35
2021/06/06 04:31:36;;;;;;;;;;;26.40;63.40;;;;;;5123554;28;19907;-35
2021/06/06 04:34:02;;;;;;;;;;;26.40;63.40;;;;;;5123637;28;19912;-36
2021/06/06 04:36:28;;;;;;;;;;;26.40;63.40;;;;;;5123559;28;20027;-35
2021/06/06 04:38:54;;;;;;;;;;;26.40;63.40;;;;;;5123270;28;19907;-35
2021/06/06 04:41:20;;;;;;;;;;;26.40;64.20;;;;;;5139404;28;19917;-35
2021/06/06 04:43:46;;;;;;;;;;;26.30;63.50;;;;;;5143941;28;19941;-35
2021/06/06 04:46:14;;;;;;;;;;;26.40;63.60;;;;;;5144165;28;19966;-36
2021/06/06 04:48:41;;;;;;;;;;;26.30;63.60;;;;;;5143833;28;19919;-35
2021/06/06 04:51:08;;;;;;;;;;;26.30;63.60;;;;;;5127408;28;19967;-35
2021/06/06 04:53:34;;;;;;;;;;;26.30;63.70;;;;;;5123249;28;19919;-35
2021/06/06 04:56:01;;;;;;;;;;;26.30;63.80;;;;;;5123200;28;19908;-35
2021/06/06 04:58:27;;;;;;;;;;;26.30;63.80;;;;;;5132431;28;19915;-35
2021/06/06 05:00:53;;;;;;;;;;;26.30;63.70;;;;;;5123419;28;19988;-35
2021/06/06 05:03:19;;;;;;;;;;;26.30;63.70;;;;;;5123108;28;19919;-35
2021/06/06 05:05:45;;;;;;;;;;;26.30;63.80;;;;;;5123219;28;20391;-35
2021/06/06 05:08:11;;;;;;;;;;;26.30;63.60;;;;;;5123079;28;19911;-35
2021/06/06 05:10:38;;;;;;;;;;;26.30;63.70;;;;;;5133057;28;19919;-36
2021/06/06 05:13:04;;;;;;;;;;;26.20;63.50;;;;;;5143913;28;19911;-35
2021/06/06 05:15:30;;;;;;;;;;;26.20;63.50;;;;;;5143626;28;19914;-34
2021/06/06 05:17:56;;;;;;;;;;;26.20;63.60;;;;;;5143495;28;19911;-35
2021/06/06 05:20:23;;;;;;;;;;;26.20;63.50;;;;;;5133579;28;19908;-35
2021/06/06 05:22:49;;;;;;;;;;;26.20;63.50;;;;;;5108418;28;19960;-35
2021/06/06 05:25:15;;;;;;;;;;;26.20;63.60;;;;;;5121208;28;19916;-35
2021/06/06 05:27:42;;;;;;;;;;;26.20;63.50;;;;;;5117823;28;19920;-35
2021/06/06 05:30:08;;;;;;;;;;;26.20;63.60;;;;;;5102549;28;19923;-35
2021/06/06 05:32:34;;;;;;;;;;;26.20;63.50;;;;;;5102464;28;20292;-35
2021/06/06 05:35:00;;;;;;;;;;;26.10;63.60;;;;;;5102434;28;19908;-35
2021/06/06 05:37:26;;;;;;;;;;;26.10;63.60;;;;;;5102602;28;19919;-35
2021/06/06 05:39:53;;;;;;;;;;;26.10;63.70;;;;;;5105523;28;19912;-35
2021/06/06 05:42:19;;;;;;;;;;;26.10;63.70;;;;;;5124250;28;19942;-35
2021/06/06 05:44:45;;;;;;;;;;;26.10;63.70;;;;;;5126714;28;19908;-35
2021/06/06 05:47:10;;;;;;;;;;;26.10;63.80;;;;;;5126605;28;19954;-35
2021/06/06 05:49:36;;;;;;;;;;;26.10;63.90;;;;;;5122644;28;19935;-35
2021/06/06 05:52:03;;;;;;;;;;;26.00;63.70;;;;;;5107490;28;20015;-35
2021/06/06 05:54:29;;;;;;;;;;;26.10;63.80;;;;;;5117080;28;19919;-35
2021/06/06 05:56:54;;;;;;;;;;;26.10;63.80;;;;;;5126402;28;19908;-35
2021/06/06 05:59:20;;;;;;;;;;;26.10;63.70;;;;;;5107000;28;19918;-35
2021/06/06 06:01:46;;;;;;;;;;;26.10;63.70;;;;;;5087593;28;19934;-35
2021/06/06 06:04:12;;;;;;;;;;;26.00;63.60;;;;;;5106983;28;19923;-35
2021/06/06 06:06:38;;;;;;;;;;;26.00;63.60;;;;;;5124236;28;19915;-35
2021/06/06 06:09:04;;;;;;;;;;;26.00;63.60;;;;;;5120291;28;19919;-34
2021/06/06 06:11:30;;;;;;;;;;;26.00;63.60;;;;;;5122780;28;19911;-35
2021/06/06 06:13:56;;;;;;;;;;;26.00;63.60;;;;;;5126032;28;19978;-36
2021/06/06 06:16:25;;;;;;;;;;;26.00;63.60;;;;;;5125983;28;19919;-34
2021/06/06 06:18:51;;;;;;;;;;;26.00;63.60;;;;;;5107386;28;19908;-35
2021/06/06 06:21:17;;;;;;;;;;;26.00;63.60;;;;;;5108457;28;19912;-35
2021/06/06 06:23:43;;;;;;;;;;;26.00;63.60;;;;;;5105196;28;19930;-35
2021/06/06 06:26:09;;;;;;;;;;;25.90;63.60;;;;;;5105313;28;19912;-35
2021/06/06 06:28:35;;;;;;;;;;;25.90;63.60;;;;;;5105207;28;19943;-35
2021/06/06 06:31:01;;;;;;;;;;;25.90;63.70;;;;;;5105033;28;19935;-35
2021/06/06 06:33:27;;;;;;;;;;;25.90;63.80;;;;;;5105278;28;19908;-35
2021/06/06 06:35:53;;;;;;;;;;;25.90;63.80;;;;;;5086992;28;19947;-35
2021/06/06 06:38:20;;;;;;;;;;;25.90;63.90;;;;;;5105017;28;20391;-35
2021/06/06 06:40:46;;;;;;;;;;;25.90;63.80;;;;;;5115788;28;19962;-35
2021/06/06 06:43:13;;;;;;;;;;;25.90;63.90;;;;;;5125728;28;19938;-35
2021/06/06 06:45:39;;;;;;;;;;;25.90;63.90;;;;;;5125212;28;19923;-35
2021/06/06 06:48:07;;;;;;;;;;;25.80;63.80;;;;;;5125485;28;19907;-35
2021/06/06 06:50:33;;;;;;;;;;;25.80;63.80;;;;;;5113654;28;19919;-35
2021/06/06 06:53:00;;;;;;;;;;;25.80;63.80;;;;;;5106590;28;19912;-35
2021/06/06 06:55:26;;;;;;;;;;;25.80;63.80;;;;;;5124070;28;19911;-35
2021/06/06 06:57:53;;;;;;;;;;;25.80;63.80;;;;;;5125217;28;19930;-35
2021/06/06 07:00:21;;;;;;;;;;;25.80;63.70;;;;;;5124899;28;19934;-35
2021/06/06 07:02:47;;;;;;;;;;;25.80;63.70;;;;;;5124992;28;19943;-35
2021/06/06 07:05:13;;;;;;;;;;;25.80;63.70;;;;;;5125068;28;19918;-35
2021/06/06 07:07:39;;;;;;;;;;;25.80;63.70;;;;;;5125175;28;19916;-35
2021/06/06 07:10:05;;;;;;;;;;;25.80;63.80;;;;;;5116573;28;20016;-36
2021/06/06 07:12:31;;;;;;;;;;;25.80;63.80;;;;;;5125129;28;19948;-35
2021/06/06 07:14:57;;;;;;;;;;;25.80;63.80;;;;;;5124752;28;19907;-35
2021/06/06 07:17:23;;;;;;;;;;;25.80;63.80;;;;;;5124711;28;19918;-35
2021/06/06 07:19:49;;;;;;;;;;;25.80;63.80;;;;;;5119076;28;19972;-35
2021/06/06 07:22:15;;;;;;;;;;;25.80;63.90;;;;;;5104409;28;19920;-35
2021/06/06 07:24:41;;;;;;;;;;;25.70;63.80;;;;;;5105270;28;20373;-35
2021/06/06 07:27:07;;;;;;;;;;;25.70;63.80;;;;;;5104404;28;19916;-35
2021/06/06 07:29:33;;;;;;;;;;;25.70;63.90;;;;;;5104072;28;19912;-35
2021/06/06 07:31:59;;;;;;;;;;;25.70;63.90;;;;;;5104002;28;19912;-35
2021/06/06 07:34:28;;;;;;;;;;;25.70;64.00;;;;;;5104129;28;19976;-35
2021/06/06 07:36:56;;;;;;;;;;;25.60;63.80;;;;;;5104169;28;19942;-35
2021/06/06 07:39:22;;;;;;;;;;;25.70;63.90;;;;;;5104120;28;20043;-35
2021/06/06 07:41:48;;;;;;;;;;;25.70;63.80;;;;;;5123518;28;19916;-35
2021/06/06 07:44:15;;;;;;;;;;;25.70;63.80;;;;;;5124283;28;19919;-35
2021/06/06 07:46:41;;;;;;;;;;;25.60;63.80;;;;;;5105680;28;19958;-35
2021/06/06 07:49:07;;;;;;;;;;;25.60;63.90;;;;;;5124277;28;20546;-35
2021/06/06 07:51:33;;;;;;;;;;;25.60;64.00;;;;;;5104263;28;19919;-35
2021/06/06 07:54:02;;;;;;;;;;;25.60;64.00;;;;;;5103771;28;19912;-35
2021/06/06 07:56:28;;;;;;;;;;;25.60;64.10;;;;;;5114388;28;19941;-35
2021/06/06 07:58:54;;;;;;;;;;;25.60;64.10;;;;;;5124135;28;19975;-35
2021/06/06 08:01:20;;;;;;;;;;;25.60;64.10;;;;;;5115683;28;19911;-35
2021/06/06 08:03:49;;;;;;;;;;;25.60;64.20;;;;;;5112404;28;19920;-35
2021/06/06 08:06:15;;;;;;;;;;;25.60;64.20;;;;;;5102954;28;19908;-35
2021/06/06 08:08:41;;;;;;;;;;;25.60;64.10;;;;;;5105165;28;19919;-35
2021/06/06 08:11:07;;;;;;;;;;;25.60;64.10;;;;;;5109972;28;19908;-35
2021/06/06 08:13:33;;;;;;;;;;;25.50;64.00;;;;;;5103861;28;19918;-35
2021/06/06 08:15:59;;;;;;;;;;;25.60;64.00;;;;;;5105982;28;20350;-35
2021/06/06 08:18:26;;;;;;;;;;;25.60;64.00;;;;;;5103283;28;19919;-35
2021/06/06 08:20:54;;;;;;;;;;;25.60;64.00;;;;;;5103253;28;19920;-35
2021/06/06 08:23:20;;;;;;;;;;;25.50;63.90;;;;;;5103113;28;19924;-35
2021/06/06 08:25:47;;;;;;;;;;;25.50;63.90;;;;;;5102858;28;20315;-35
2021/06/06 08:28:13;;;;;;;;;;;25.50;63.90;;;;;;5103161;28;19912;-35
2021/06/06 08:30:43;;;;;;;;;;;25.50;63.90;;;;;;5103000;28;19912;-35
2021/06/06 08:33:09;;;;;;;;;;;25.50;63.90;;;;;;5103445;28;20315;-35
2021/06/06 08:35:35;;;;;;;;;;;25.50;63.90;;;;;;5103125;28;20339;-34
2021/06/06 08:38:01;;;;;;;;;;;25.50;63.90;;;;;;5103311;28;19919;-36
2021/06/06 08:40:53;;;;;;;;;;;25.50;64.00;;;;;;5111629;28;20088;-35
2021/06/06 08:43:20;;;;;;;;;;;25.50;64.00;;;;;;5118626;28;19926;-35
2021/06/06 08:46:04;;;;;;;;;;;25.40;63.90;;;;;;5123538;28;19974;-35
2021/06/06 08:48:30;;;;;;;;;;;25.50;64.00;;;;;;5123280;28;20331;-35
2021/06/06 08:51:20;;;;;;;;;;;25.40;63.90;;;;;;5090567;28;19912;-35
2021/06/06 08:53:53;;;;;;;;;;;25.40;63.90;;;;;;5092101;28;19914;-35
2021/06/06 08:56:23;;;;;;;;;;;25.40;63.90;;;;;;5087061;28;20023;-35
2021/06/06 08:58:58;;;;;;;;;;;25.40;63.90;;;;;;5084592;28;19912;-35
2021/06/06 09:01:38;;;;;;;;;;;25.40;63.90;;;;;;5103115;28;19912;-35
2021/06/06 09:04:07;;;;;;;;;;;25.40;63.90;;;;;;5084728;28;20007;-35
2021/06/06 09:06:40;;;;;;;;;;;25.40;63.90;;;;;;5084829;28;20564;-35
2021/06/06 09:09:06;;;;;;;;;;;25.40;63.90;;;;;;5089454;28;19908;-35
2021/06/06 09:11:32;;;;;;;;;;;25.40;63.90;;;;;;5105991;28;19912;-35
2021/06/06 09:13:58;;;;;;;;;;;25.40;64.00;;;;;;5102971;28;19923;-35
2021/06/06 09:16:28;;;;;;;;;;;25.40;64.00;;;;;;5104424;28;19955;-35
2021/06/06 09:19:01;;;;;;;;;;;25.40;64.00;;;;;;5088321;28;19912;-35
2021/06/06 09:21:27;;;;;;;;;;;25.40;64.00;;;;;;5106769;28;19919;-35
2021/06/06 09:24:02;;;;;;;;;;;25.40;64.00;;;;;;5106622;28;19931;-35
2021/06/06 09:26:28;;;;;;;;;;;25.30;63.90;;;;;;5106731;28;19959;-35
2021/06/06 09:29:02;;;;;;;;;;;25.30;63.90;;;;;;5106570;28;19915;-35
2021/06/06 09:31:28;;;;;;;;;;;25.30;63.90;;;;;;5122660;28;20011;-35
2021/06/06 09:33:54;;;;;;;;;;;25.30;64.00;;;;;;5126932;28;19912;-35
2021/06/06 09:36:21;;;;;;;;;;;25.30;64.00;;;;;;5127031;28;20520;-35
2021/06/06 09:38:47;;;;;;;;;;;25.30;64.00;;;;;;5124355;28;19911;-35
2021/06/06 09:41:16;;;;;;;;;;;25.30;64.00;;;;;;5121381;28;19918;-35
2021/06/06 09:43:43;;;;;;;;;;;25.30;64.00;;;;;;5126692;28;19916;-35
2021/06/06 09:46:16;;;;;;;;;;;25.30;64.00;;;;;;5126661;28;20318;-35
2021/06/06 09:48:43;;;;;;;;;;;25.30;64.10;;;;;;5125618;28;19912;-35
2021/06/06 09:51:11;;;;;;;;;;;25.20;64.00;;;;;;5110137;28;19912;-35
2021/06/06 09:53:39;;;;;;;;;;;25.20;64.10;;;;;;5113483;28;19915;-35
2021/06/06 09:56:09;;;;;;;;;;;25.20;64.10;;;;;;5122434;28;19916;-35
2021/06/06 09:58:37;;;;;;;;;;;25.20;64.10;;;;;;5108064;28;20280;-35
2021/06/06 10:01:09;;;;;;;;;;;25.20;64.10;;;;;;5108610;28;19947;-35
2021/06/06 10:03:36;;;;;;;;;;;25.20;64.10;;;;;;5096209;28;19920;-35
2021/06/06 10:06:31;;;;;;;;;;;25.20;64.10;;;;;;5088004;28;19919;-35
2021/06/06 10:08:58;;;;;;;;;;;25.20;64.10;;;;;;5083871;28;20428;-35
2021/06/06 10:11:27;;;;;;;;;;;25.20;64.20;;;;;;5087895;28;19908;-35
2021/06/06 10:13:53;;;;;;;;;;;25.20;64.20;;;;;;5106076;28;19912;-35
2021/06/06 10:16:21;;;;;;;;;;;25.20;64.20;;;;;;5089839;28;20446;-35
2021/06/06 10:18:53;;;;;;;;;;;25.20;64.20;;;;;;5106779;28;19911;-35
2021/06/06 10:21:23;;;;;;;;;;;25.20;64.20;;;;;;5126062;28;20207;-35
2021/06/06 10:23:48;;;;;;;;;;;25.20;64.20;;;;;;5107538;28;19981;-35
2021/06/06 10:26:16;;;;;;;;;;;25.20;64.20;;;;;;5125965;28;20371;-35
2021/06/06 10:28:45;;;;;;;;;;;25.10;64.10;;;;;;5125141;28;19943;-35
2021/06/06 10:31:23;;;;;;;;;;;25.10;64.10;;;;;;5126159;28;19918;-35
2021/06/06 10:33:51;;;;;;;;;;;25.10;64.20;;;;;;5125734;28;19922;-35
2021/06/06 10:36:21;;;;;;;;;;;25.10;64.20;;;;;;5126148;28;20059;-36
2021/06/06 10:38:47;;;;;;;;;;;25.10;64.20;;;;;;5125645;28;19912;-35
2021/06/06 10:41:14;;;;;;;;;;;25.10;64.20;;;;;;5111042;28;20033;-35
2021/06/06 10:43:43;;;;;;;;;;;25.10;64.20;;;;;;5105352;28;19923;-35
2021/06/06 10:46:14;;;;;;;;;;;25.10;64.20;;;;;;5105247;28;19971;-35
2021/06/06 10:49:06;;;;;;;;;;;25.00;64.20;;;;;;5086808;28;19908;-35
2021/06/06 10:51:42;;;;;;;;;;;25.00;64.30;;;;;;5070482;28;19939;-35
2021/06/06 10:54:27;;;;;;;;;;;25.10;64.20;;;;;;5097664;28;19987;-35
2021/06/06 10:56:54;;;;;;;;;;;25.00;64.20;;;;;;5125559;28;19911;-35
2021/06/06 10:59:36;;;;;;;;;;;25.00;64.20;;;;;;5125202;28;20362;-35
2021/06/06 11:02:03;;;;;;;;;;;25.00;64.20;;;;;;5106892;28;19911;-35
2021/06/06 11:04:31;;;;;;;;;;;25.00;64.20;;;;;;5125245;28;19955;-35
2021/06/06 11:07:01;;;;;;;;;;;25.00;64.20;;;;;;5125407;28;19908;-35
2021/06/06 11:09:29;;;;;;;;;;;25.00;64.20;;;;;;5125012;28;19915;-35
2021/06/06 11:12:00;;;;;;;;;;;25.00;64.30;;;;;;5104832;28;20006;-35
2021/06/06 11:14:30;;;;;;;;;;;25.00;64.30;;;;;;5104962;28;19912;-35
2021/06/06 11:17:05;;;;;;;;;;;25.00;64.30;;;;;;5109021;28;19955;-35
2021/06/06 11:19:33;;;;;;;;;;;25.00;64.30;;;;;;5122063;28;19919;-35
2021/06/06 11:22:02;;;;;;;;;;;25.00;64.30;;;;;;5107917;28;19928;-35
2021/06/06 11:24:28;;;;;;;;;;;25.00;64.30;;;;;;5104356;28;19923;-35
2021/06/06 11:27:12;;;;;;;;;;;25.00;64.30;;;;;;5104387;28;19912;-35
2021/06/06 11:29:44;;;;;;;;;;;24.90;64.30;;;;;;5104368;28;20027;-35
2021/06/06 11:32:17;;;;;;;;;;;24.90;64.30;;;;;;5104328;28;19908;-35
2021/06/06 11:35:02;;;;;;;;;;;24.90;64.30;;;;;;5104538;28;20000;-35
2021/06/06 11:37:27;;;;;;;;;;;24.90;64.30;;;;;;5104221;28;19915;-35
2021/06/06 11:39:54;;;;;;;;;;;24.90;64.40;;;;;;5106709;28;19912;-35
2021/06/06 11:42:22;;;;;;;;;;;24.90;64.40;;;;;;5124436;28;19919;-35
2021/06/06 11:44:55;;;;;;;;;;;24.90;64.40;;;;;;5124708;28;19916;-35
2021/06/06 11:47:24;;;;;;;;;;;24.90;64.40;;;;;;5098297;28;19908;-35
2021/06/06 11:50:22;;;;;;;;;;;24.90;64.40;;;;;;5103662;28;19912;-35
2021/06/06 11:52:49;;;;;;;;;;;24.90;64.40;;;;;;5020962;28;19917;-35
2021/06/06 11:55:15;;;;;;;;;;;24.90;64.40;;;;;;5041006;28;20044;-35
2021/06/06 11:57:42;;;;;;;;;;;24.80;64.30;;;;;;5040921;28;19917;-35
2021/06/06 12:00:22;;;;;;;;;;;24.80;64.30;;;;;;5040524;28;19913;-35
2021/06/06 12:02:48;;;;;;;;;;;24.80;64.30;;;;;;5024102;28;20748;-35
2021/06/06 12:05:21;;;;;;;;;;;24.80;64.30;;;;;;5024352;28;19972;-35
2021/06/06 12:07:49;;;;;;;;;;;24.80;64.30;;;;;;5040778;28;19935;-35
2021/06/06 12:10:22;;;;;;;;;;;24.80;64.30;;;;;;5040532;28;19968;-35
2021/06/06 12:12:49;;;;;;;;;;;24.80;64.20;;;;;;5040754;28;19917;-35
2021/06/06 12:15:20;;;;;;;;;;;24.80;64.30;;;;;;5040593;28;19913;-35
2021/06/06 12:17:46;;;;;;;;;;;24.80;64.30;;;;;;5040168;28;19913;-35
2021/06/06 12:20:16;;;;;;;;;;;24.80;64.30;;;;;;5023551;28;19915;-35
2021/06/06 12:22:42;;;;;;;;;;;24.80;64.30;;;;;;5040378;28;20003;-35
2021/06/06 12:25:14;;;;;;;;;;;24.80;64.40;;;;;;5023970;28;19917;-35
2021/06/06 12:27:53;;;;;;;;;;;24.80;64.40;;;;;;5051188;28;19967;-35
2021/06/06 12:30:32;;;;;;;;;;;24.80;64.40;;;;;;5103310;28;19912;-35
2021/06/06 12:33:21;;;;;;;;;;;24.80;64.50;;;;;;5103102;28;20645;-35
2021/06/06 12:35:48;;;;;;;;;;;24.80;64.50;;;;;;5083790;28;20026;-35
2021/06/06 12:38:15;;;;;;;;;;;24.80;64.50;;;;;;5103376;28;19983;-35
2021/06/06 12:40:41;;;;;;;;;;;24.80;64.50;;;;;;5091771;28;19955;-35
2021/06/06 12:43:07;;;;;;;;;;;24.80;64.50;;;;;;5103286;28;20671;-35
2021/06/06 12:45:34;;;;;;;;;;;24.80;64.50;;;;;;5103167;28;19935;-35
2021/06/06 12:48:07;;;;;;;;;;;24.80;64.40;;;;;;5104948;28;19912;-35
2021/06/06 12:50:33;;;;;;;;;;;24.80;64.40;;;;;;5111769;28;20562;-35
2021/06/06 12:53:00;;;;;;;;;;;24.80;64.40;;;;;;5107195;28;19912;-35
2021/06/06 12:55:27;;;;;;;;;;;24.80;64.40;;;;;;5116926;28;19916;-35
2021/06/06 12:57:55;;;;;;;;;;;24.80;64.30;;;;;;5107338;28;20007;-35
2021/06/06 13:00:26;;;;;;;;;;;24.80;64.40;;;;;;5106913;28;19908;-35
2021/06/06 13:02:52;;;;;;;;;;;24.80;64.30;;;;;;5088683;28;19938;-35
2021/06/06 13:05:47;;;;;;;;;;;24.80;64.30;;;;;;5107117;28;20007;-35
2021/06/06 13:08:42;;;;;;;;;;;24.80;64.40;;;;;;5089336;28;19933;-35
2021/06/06 13:11:12;;;;;;;;;;;24.80;64.40;;;;;;5103283;28;19950;-35
2021/06/06 13:13:45;;;;;;;;;;;24.80;64.40;;;;;;5127373;28;19923;-35
2021/06/06 13:16:18;;;;;;;;;;;24.80;64.40;;;;;;5127439;28;19912;-35
2021/06/06 13:18:54;;;;;;;;;;;24.80;64.50;;;;;;5107447;28;19912;-35
2021/06/06 13:21:25;;;;;;;;;;;24.80;64.60;;;;;;5109323;28;19924;-35
2021/06/06 13:23:51;;;;;;;;;;;24.80;64.60;;;;;;5106547;28;19922;-35
2021/06/06 13:26:21;;;;;;;;;;;24.80;64.60;;;;;;5088350;28;20011;-35
2021/06/06 13:29:00;;;;;;;;;;;24.80;64.50;;;;;;5106691;28;19934;-35
2021/06/06 13:31:28;;;;;;;;;;;24.80;64.50;;;;;;5106258;28;20002;-36
2021/06/06 13:33:54;;;;;;;;;;;24.80;64.40;;;;;;5106245;28;20049;-35
2021/06/06 13:36:20;;;;;;;;;;;24.80;64.50;;;;;;5106415;28;19916;-35
2021/06/06 13:38:46;;;;;;;;;;;24.80;64.40;;;;;;5106341;28;19908;-35
2021/06/06 13:41:15;;;;;;;;;;;24.80;64.40;;;;;;5120733;28;19912;-35
2021/06/06 13:43:41;;;;;;;;;;;24.90;64.50;;;;;;5126772;28;20402;-35
2021/06/06 13:46:07;;;;;;;;;;;24.90;64.50;;;;;;5126734;28;19908;-35
2021/06/06 13:48:34;;;;;;;;;;;24.90;64.50;;;;;;5090018;28;20315;-35
2021/06/06 13:51:02;;;;;;;;;;;24.90;64.50;;;;;;5105784;28;19919;-35
2021/06/06 13:53:28;;;;;;;;;;;24.90;64.50;;;;;;5106031;28;19912;-35
2021/06/06 13:55:54;;;;;;;;;;;24.90;64.50;;;;;;5105938;28;19912;-35
2021/06/06 13:58:20;;;;;;;;;;;24.90;64.50;;;;;;5111160;28;19912;-35
2021/06/06 14:00:46;;;;;;;;;;;24.90;64.60;;;;;;5105882;28;19920;-35
2021/06/06 14:03:13;;;;;;;;;;;24.90;64.60;;;;;;5104201;28;19916;-35
2021/06/06 14:05:39;;;;;;;;;;;24.90;64.60;;;;;;5087845;28;19909;-35
2021/06/06 14:08:06;;;;;;;;;;;24.90;64.80;;;;;;5105716;28;19914;-35
2021/06/06 14:10:34;;;;;;;;;;;24.90;64.80;;;;;;5114634;28;19935;-35
2021/06/06 14:13:03;;;;;;;;;;;24.90;64.90;;;;;;5115647;28;19915;-35
2021/06/06 14:15:29;;;;;;;;;;;24.90;65.00;;;;;;5105760;28;19973;-35
2021/06/06 14:17:55;;;;;;;;;;;24.90;64.90;;;;;;5117788;28;19943;-35
2021/06/06 14:20:22;;;;;;;;;;;24.90;64.90;;;;;;5115735;28;19908;-35
2021/06/06 14:22:51;;;;;;;;;;;25.00;64.80;;;;;;5105017;28;19931;-35